createdAt,value
2022-12-11T00:00:17.273Z,13.95
2022-12-11T00:02:44.109Z,16.48
2022-12-11T00:05:11.708Z,17.08
2022-12-11T00:07:38.787Z,23.15
2022-12-11T00:10:06.461Z,15.07
2022-12-11T00:12:33.326Z,21.88
2022-12-11T00:15:00.194Z,22.30
2022-12-11T00:17:27.037Z,23.92
2022-12-11T00:19:53.887Z,23.85
2022-12-11T00:22:21.925Z,21.17
2022-12-11T00:24:48.737Z,20.85
2022-12-11T00:27:15.621Z,19.55
2022-12-11T00:29:42.587Z,18.48
2022-12-11T00:32:09.450Z,22.45
2022-12-11T00:34:36.342Z,20.88
2022-12-11T00:37:03.354Z,20.63
2022-12-11T00:39:30.205Z,18.98
2022-12-11T00:41:58.377Z,16.23
2022-12-11T00:44:25.660Z,17.13
2022-12-11T00:46:52.461Z,17.25
2022-12-11T00:49:19.497Z,14.68
2022-12-11T00:51:46.283Z,17.85
2022-12-11T00:54:13.329Z,19.25
2022-12-11T00:56:40.177Z,20.20
2022-12-11T00:59:07.335Z,20.52
2022-12-11T01:01:34.809Z,12.75
2022-12-11T01:04:02.130Z,19.80
2022-12-11T01:06:29.143Z,22.90
2022-12-11T01:09:15.497Z,24.10
2022-12-11T01:11:43.304Z,22.88
2022-12-11T01:14:11.868Z,36.78
2022-12-11T01:16:38.952Z,44.22
2022-12-11T01:19:06.147Z,50.13
2022-12-11T01:21:33.124Z,79.22
2022-12-11T01:24:00.020Z,45.08
2022-12-11T01:26:26.926Z,28.45
2022-12-11T01:28:53.746Z,19.88
2022-12-11T01:31:22.246Z,39.63
2022-12-11T01:33:49.257Z,38.88
2022-12-11T01:36:19.594Z,69.43
2022-12-11T01:38:48.044Z,67.25
2022-12-11T01:41:15.505Z,71.47
2022-12-11T01:44:03.173Z,25.85
2022-12-11T01:46:31.688Z,51.55
2022-12-11T01:49:00.845Z,42.63
2022-12-11T01:51:32.144Z,43.90
2022-12-11T01:54:02.374Z,23.23
2022-12-11T01:56:33.041Z,24.20
2022-12-11T01:59:07.084Z,27.17
2022-12-11T02:02:01.571Z,33.05
2022-12-11T02:04:29.974Z,45.40
2022-12-11T02:06:56.898Z,43.80
2022-12-11T02:09:27.556Z,42.55
2022-12-11T02:12:13.141Z,46.33
2022-12-11T02:14:43.275Z,35.38
2022-12-11T02:17:16.976Z,26.05
2022-12-11T02:20:02.119Z,26.83
2022-12-11T02:23:01.490Z,17.95
2022-12-11T02:25:59.463Z,16.60
2022-12-11T02:28:39.279Z,15.45
2022-12-11T02:31:13.194Z,7.95
2022-12-11T02:33:49.765Z,14.13
2022-12-11T02:36:20.301Z,13.13
2022-12-11T02:38:51.835Z,10.63
2022-12-11T02:41:22.052Z,14.82
2022-12-11T02:43:51.186Z,15.93
2022-12-11T02:46:20.959Z,22.15
2022-12-11T02:48:51.209Z,22.73
2022-12-11T02:51:25.239Z,22.02
2022-12-11T02:53:57.448Z,19.88
2022-12-11T02:56:30.922Z,21.23
2022-12-11T02:59:03.988Z,15.82
2022-12-11T03:01:31.092Z,15.68
2022-12-11T03:03:58.479Z,15.90
2022-12-11T03:06:32.684Z,14.50
2022-12-11T03:08:59.693Z,10.85
2022-12-11T03:11:26.498Z,12.00
2022-12-11T03:13:54.423Z,11.10
2022-12-11T03:16:47.484Z,11.70
2022-12-11T03:19:38.105Z,13.90
2022-12-11T03:22:13.526Z,13.15
2022-12-11T03:25:04.419Z,13.15
2022-12-11T03:27:39.603Z,14.68
2022-12-11T03:30:11.782Z,17.30
2022-12-11T03:32:44.634Z,16.40
2022-12-11T03:35:31.061Z,16.98
2022-12-11T03:38:02.863Z,20.83
2022-12-11T03:40:33.359Z,21.33
2022-12-11T03:43:00.818Z,22.90
2022-12-11T03:45:30.187Z,25.83
2022-12-11T03:47:59.996Z,24.65
2022-12-11T03:50:31.149Z,24.25
2022-12-11T03:52:58.770Z,24.55
2022-12-11T03:55:28.331Z,23.70
2022-12-11T03:57:55.354Z,23.08
2022-12-11T04:00:22.279Z,22.85
2022-12-11T04:03:13.338Z,22.27
2022-12-11T04:05:42.606Z,23.08
2022-12-11T04:08:09.747Z,20.73
2022-12-11T04:10:36.895Z,20.58
2022-12-11T04:13:03.945Z,21.48
2022-12-11T04:15:30.751Z,20.05
2022-12-11T04:18:16.354Z,17.65
2022-12-11T04:21:01.764Z,17.10
2022-12-11T04:23:47.210Z,19.05
2022-12-11T04:26:20.558Z,19.65
2022-12-11T04:28:48.785Z,16.75
2022-12-11T04:31:21.614Z,18.05
2022-12-11T04:33:48.541Z,18.25
2022-12-11T04:36:15.910Z,17.70
2022-12-11T04:38:42.769Z,17.27
2022-12-11T04:41:15.830Z,15.70
2022-12-11T04:43:45.319Z,14.80
2022-12-11T04:46:18.230Z,15.80
2022-12-11T04:48:46.008Z,14.98
2022-12-11T04:51:12.998Z,13.52
2022-12-11T04:53:39.945Z,13.30
2022-12-11T04:56:10.017Z,13.90
2022-12-11T04:58:37.219Z,8.00
2022-12-11T05:01:11.987Z,9.00
2022-12-11T05:03:39.072Z,10.40
2022-12-11T05:06:06.669Z,8.88
2022-12-11T05:08:36.391Z,6.55
2022-12-11T05:11:05.984Z,6.18
2022-12-11T05:13:33.175Z,7.95
2022-12-11T05:16:00.563Z,8.70
2022-12-11T05:18:27.467Z,11.27
2022-12-11T05:21:04.130Z,12.45
2022-12-11T05:23:31.155Z,12.93
2022-12-11T05:26:00.432Z,9.38
2022-12-11T05:28:29.217Z,9.90
2022-12-11T05:31:06.053Z,8.82
2022-12-11T05:33:34.339Z,10.27
2022-12-11T05:36:01.582Z,10.43
2022-12-11T05:38:28.480Z,8.32
2022-12-11T05:41:04.136Z,9.55
2022-12-11T05:43:33.625Z,9.88
2022-12-11T05:46:08.139Z,9.15
2022-12-11T05:48:35.444Z,9.45
2022-12-11T05:51:02.936Z,10.20
2022-12-11T05:53:30.041Z,7.93
2022-12-11T05:56:05.863Z,10.55
2022-12-11T05:58:34.115Z,7.65
2022-12-11T06:01:01.391Z,9.32
2022-12-11T06:03:28.729Z,7.20
2022-12-11T06:05:55.931Z,8.70
2022-12-11T06:08:22.868Z,7.80
2022-12-11T06:10:50.763Z,9.57
2022-12-11T06:13:17.664Z,12.65
2022-12-11T06:15:45.027Z,10.68
2022-12-11T06:18:11.989Z,7.45
2022-12-11T06:20:39.428Z,5.55
2022-12-11T06:23:06.445Z,5.28
2022-12-11T06:25:33.696Z,5.82
2022-12-11T06:28:00.555Z,8.63
2022-12-11T06:30:38.909Z,7.10
2022-12-11T06:33:06.975Z,6.22
2022-12-11T06:35:40.125Z,9.05
2022-12-11T06:38:09.241Z,9.82
2022-12-11T06:40:36.116Z,9.02
2022-12-11T06:43:03.657Z,9.98
2022-12-11T06:45:30.968Z,9.95
2022-12-11T06:47:58.857Z,13.25
2022-12-11T06:50:27.114Z,11.65
2022-12-11T06:52:53.983Z,11.27
2022-12-11T06:55:20.944Z,10.77
2022-12-11T06:57:47.801Z,10.93
2022-12-11T07:00:15.690Z,11.68
2022-12-11T07:02:42.561Z,11.10
2022-12-11T07:05:09.846Z,9.13
2022-12-11T07:07:36.952Z,11.55
2022-12-11T07:10:08.335Z,11.63
2022-12-11T07:12:36.145Z,9.35
2022-12-11T07:15:04.293Z,9.85
2022-12-11T07:17:31.452Z,11.30
2022-12-11T07:19:58.390Z,11.73
2022-12-11T07:22:25.220Z,12.55
2022-12-11T07:24:52.097Z,10.85
2022-12-11T07:27:18.955Z,10.60
2022-12-11T07:29:45.874Z,12.63
2022-12-11T07:32:12.800Z,13.95
2022-12-11T07:34:40.126Z,6.22
2022-12-11T07:37:07.072Z,16.85
2022-12-11T07:39:34.110Z,19.20
2022-12-11T07:42:01.004Z,16.02
2022-12-11T07:44:27.845Z,17.02
2022-12-11T07:46:54.688Z,14.32
2022-12-11T07:49:21.622Z,10.10
2022-12-11T07:51:48.499Z,10.02
2022-12-11T07:54:19.060Z,8.73
2022-12-11T07:56:53.166Z,10.60
2022-12-11T07:59:21.291Z,11.20
2022-12-11T08:01:48.426Z,11.40
2022-12-11T08:04:16.046Z,8.57
2022-12-11T08:06:43.602Z,9.95
2022-12-11T08:09:21.159Z,9.95
2022-12-11T08:11:52.192Z,8.20
2022-12-11T08:14:19.795Z,10.13
2022-12-11T08:16:47.237Z,9.60
2022-12-11T08:19:14.551Z,10.32
2022-12-11T08:21:41.598Z,9.95
2022-12-11T08:24:10.095Z,10.63
2022-12-11T08:26:37.146Z,10.50
2022-12-11T08:29:04.064Z,11.63
2022-12-11T08:31:33.581Z,11.98
2022-12-11T08:34:00.492Z,13.35
2022-12-11T08:36:27.814Z,20.35
2022-12-11T08:38:56.237Z,11.70
2022-12-11T08:41:29.716Z,11.07
2022-12-11T08:44:00.995Z,16.13
2022-12-11T08:46:31.541Z,19.65
2022-12-11T08:48:59.592Z,16.63
2022-12-11T08:51:30.382Z,16.30
2022-12-11T08:54:00.213Z,16.35
2022-12-11T08:56:28.382Z,14.38
2022-12-11T08:58:55.650Z,13.88
2022-12-11T09:01:26.909Z,12.30
2022-12-11T09:03:56.797Z,13.60
2022-12-11T09:06:26.279Z,12.68
2022-12-11T09:08:54.208Z,13.45
2022-12-11T09:11:24.346Z,9.40
2022-12-11T09:13:54.224Z,5.75
2022-12-11T09:16:24.657Z,5.53
2022-12-11T09:18:53.670Z,9.23
2022-12-11T09:21:24.332Z,15.02
2022-12-11T09:24:10.802Z,13.07
2022-12-11T09:26:38.911Z,12.00
2022-12-11T09:29:06.508Z,15.75
2022-12-11T09:31:36.156Z,10.50
2022-12-11T09:34:07.194Z,19.25
2022-12-11T09:36:35.201Z,14.63
2022-12-11T09:39:04.438Z,13.48
2022-12-11T09:41:50.350Z,9.15
2022-12-11T09:44:31.568Z,11.38
2022-12-11T09:46:59.437Z,12.73
2022-12-11T09:49:37.985Z,11.68
2022-12-11T09:52:11.935Z,17.23
2022-12-11T09:54:53.204Z,14.43
2022-12-11T09:57:20.608Z,13.63
2022-12-11T09:59:49.995Z,17.98
2022-12-11T10:02:42.782Z,18.17
2022-12-11T10:05:27.866Z,14.88
2022-12-11T10:08:09.073Z,16.83
2022-12-11T10:10:43.834Z,17.83
2022-12-11T10:13:16.665Z,17.40
2022-12-11T10:16:37.163Z,21.52
2022-12-11T10:19:04.780Z,22.50
2022-12-11T10:21:40.127Z,21.65
2022-12-11T10:25:07.649Z,36.13
2022-12-11T10:27:23.585Z,26.00
2022-12-11T10:30:18.435Z,35.50
2022-12-11T10:33:02.130Z,28.70
2022-12-11T10:35:55.329Z,33.33
2022-12-11T10:38:22.289Z,26.35
2022-12-11T10:43:47.849Z,43.95
2022-12-11T10:46:19.084Z,37.92
2022-12-11T10:48:59.494Z,38.22
2022-12-11T10:51:32.875Z,49.25
2022-12-11T10:54:08.771Z,29.27
2022-12-11T10:56:38.155Z,31.70
2022-12-11T10:59:05.537Z,21.08
2022-12-11T11:01:33.206Z,22.98
2022-12-11T11:04:06.753Z,21.95
2022-12-11T11:06:34.235Z,20.67
2022-12-11T11:09:02.099Z,26.95
2022-12-11T11:11:38.319Z,31.90
2022-12-11T11:14:05.341Z,28.45
2022-12-11T11:16:35.403Z,27.25
2022-12-11T11:19:02.581Z,35.90
2022-12-11T11:21:30.440Z,36.97
2022-12-11T11:23:58.327Z,36.45
2022-12-11T11:26:38.287Z,41.55
2022-12-11T11:29:26.628Z,37.30
2022-12-11T11:31:53.837Z,40.80
2022-12-11T11:34:26.216Z,36.22
2022-12-11T11:36:58.122Z,40.00
2022-12-11T11:39:38.358Z,28.95
2022-12-11T11:42:18.900Z,24.67
2022-12-11T11:45:14.010Z,20.48
2022-12-11T11:48:11.097Z,12.45
2022-12-11T11:50:45.160Z,14.98
2022-12-11T11:53:16.764Z,9.68
2022-12-11T11:56:06.092Z,11.65
2022-12-11T11:58:50.013Z,10.00
2022-12-11T12:01:20.286Z,9.52
2022-12-11T12:03:50.981Z,9.57
2022-12-11T12:06:51.671Z,11.48
2022-12-11T12:09:41.671Z,14.02
2022-12-11T12:12:47.622Z,13.82
2022-12-11T12:15:35.820Z,15.27
2022-12-11T12:19:00.935Z,19.20
2022-12-11T12:21:33.556Z,15.40
2022-12-11T12:24:12.490Z,13.32
2022-12-11T12:26:45.845Z,11.60
2022-12-11T12:29:24.829Z,10.45
2022-12-11T12:32:09.010Z,11.98
2022-12-11T12:34:42.366Z,10.80
2022-12-11T12:37:31.222Z,10.38
2022-12-11T12:40:17.025Z,10.57
2022-12-11T12:42:49.851Z,9.75
2022-12-11T12:45:34.470Z,10.55
2022-12-11T12:48:02.638Z,10.70
2022-12-11T12:50:40.582Z,10.98
2022-12-11T12:53:14.683Z,9.75
2022-12-11T12:55:45.619Z,10.40
2022-12-11T12:58:28.233Z,12.27
2022-12-11T13:01:06.678Z,12.48
2022-12-11T13:03:37.917Z,12.52
2022-12-11T13:06:09.366Z,12.18
2022-12-11T13:08:52.988Z,11.85
2022-12-11T13:11:21.727Z,11.40
2022-12-11T13:14:03.858Z,9.52
2022-12-11T13:16:40.341Z,9.77
2022-12-11T13:19:35.433Z,7.93
2022-12-11T13:22:15.104Z,5.07
2022-12-11T13:24:49.039Z,5.82
2022-12-11T13:27:37.376Z,5.20
2022-12-11T13:30:25.243Z,6.82
2022-12-11T13:33:04.639Z,5.18
2022-12-11T13:35:33.852Z,5.13
2022-12-11T13:38:06.173Z,5.97
2022-12-11T13:40:38.756Z,5.00
2022-12-11T13:43:17.432Z,5.13
2022-12-11T13:45:49.744Z,5.03
2022-12-11T13:48:25.868Z,5.30
2022-12-11T13:50:55.223Z,5.22
2022-12-11T13:53:22.654Z,3.90
2022-12-11T13:56:02.055Z,3.25
2022-12-11T13:58:31.203Z,3.67
2022-12-11T14:01:22.704Z,3.42
2022-12-11T14:03:58.413Z,4.00
2022-12-11T14:06:28.903Z,4.25
2022-12-11T14:09:00.555Z,4.32
2022-12-11T14:11:34.538Z,3.60
2022-12-11T14:14:05.943Z,3.42
2022-12-11T14:16:33.567Z,2.92
2022-12-11T14:19:10.253Z,3.72
2022-12-11T14:21:37.452Z,3.95
2022-12-11T14:24:06.612Z,4.07
2022-12-11T14:26:38.991Z,3.25
2022-12-11T14:29:06.710Z,3.83
2022-12-11T14:31:52.079Z,3.72
2022-12-11T14:34:30.714Z,3.88
2022-12-11T14:36:59.560Z,3.85
2022-12-11T14:39:33.983Z,3.58
2022-12-11T14:42:08.172Z,3.58
2022-12-11T14:44:46.478Z,3.47
2022-12-11T14:47:22.576Z,3.45
2022-12-11T14:49:58.752Z,3.03
2022-12-11T14:52:36.050Z,3.00
2022-12-11T14:57:37.302Z,2.55
2022-12-11T15:00:05.861Z,2.28
2022-12-11T15:02:36.128Z,2.67
2022-12-11T15:05:06.225Z,2.60
2022-12-11T15:07:33.985Z,3.22
2022-12-11T15:10:01.050Z,3.33
2022-12-11T15:12:28.074Z,3.55
2022-12-11T15:15:00.837Z,3.47
2022-12-11T15:17:30.935Z,3.13
2022-12-11T15:20:10.000Z,3.42
2022-12-11T15:22:37.660Z,2.78
2022-12-11T15:25:05.970Z,3.13
2022-12-11T15:27:39.150Z,3.25
2022-12-11T15:30:31.436Z,3.33
2022-12-11T15:33:11.982Z,3.25
2022-12-11T15:35:40.192Z,3.20
2022-12-11T15:38:25.072Z,3.05
2022-12-11T15:40:52.121Z,3.10
2022-12-11T15:43:18.969Z,3.85
2022-12-11T15:45:45.969Z,3.20
2022-12-11T15:48:13.158Z,3.55
2022-12-11T15:50:40.312Z,3.75
2022-12-11T15:53:07.242Z,4.47
2022-12-11T15:55:35.154Z,4.53
2022-12-11T15:58:06.056Z,8.75
2022-12-11T16:00:32.980Z,4.90
2022-12-11T16:02:59.982Z,4.55
2022-12-11T16:05:27.167Z,6.05
2022-12-11T16:07:56.595Z,9.55
2022-12-11T16:10:23.539Z,8.57
2022-12-11T16:12:50.520Z,8.15
2022-12-11T16:15:23.421Z,5.82
2022-12-11T16:17:58.952Z,6.43
2022-12-11T16:20:25.823Z,7.00
2022-12-11T16:22:52.668Z,7.32
2022-12-11T16:25:19.691Z,8.77
2022-12-11T16:27:46.521Z,9.63
2022-12-11T16:30:14.059Z,11.55
2022-12-11T16:32:40.958Z,8.13
2022-12-11T16:35:07.912Z,13.20
2022-12-11T16:37:35.073Z,13.05
2022-12-11T16:40:01.957Z,9.05
2022-12-11T16:42:28.754Z,9.75
2022-12-11T16:45:03.895Z,9.95
2022-12-11T16:47:30.771Z,8.43
2022-12-11T16:50:01.092Z,9.70
2022-12-11T16:52:28.595Z,10.80
2022-12-11T16:54:57.053Z,6.82
2022-12-11T16:57:24.593Z,7.85
2022-12-11T16:59:51.655Z,8.93
2022-12-11T17:02:20.019Z,9.73
2022-12-11T17:04:52.116Z,8.40
2022-12-11T17:07:20.707Z,8.68
2022-12-11T17:09:47.792Z,7.72
2022-12-11T17:12:14.636Z,7.10
2022-12-11T17:14:41.518Z,6.20
2022-12-11T17:22:04.648Z,7.65
2022-12-11T17:24:31.636Z,6.40
2022-12-11T17:26:59.779Z,6.20
2022-12-11T17:29:26.686Z,7.00
2022-12-11T17:31:53.707Z,7.43
2022-12-11T17:34:20.622Z,7.05
2022-12-11T17:36:47.715Z,9.38
2022-12-11T17:39:14.669Z,8.32
2022-12-11T17:41:41.569Z,6.97
2022-12-11T17:44:08.473Z,6.25
2022-12-11T17:46:35.400Z,6.75
2022-12-11T17:49:04.478Z,8.00
2022-12-11T17:51:31.560Z,8.77
2022-12-11T17:53:58.542Z,8.05
2022-12-11T17:56:26.414Z,10.40
2022-12-11T17:58:53.456Z,8.43
2022-12-11T18:01:21.079Z,9.30
2022-12-11T18:03:48.348Z,8.05
2022-12-11T18:06:16.890Z,8.60
2022-12-11T18:08:45.702Z,7.45
2022-12-11T18:11:18.048Z,7.13
2022-12-11T18:13:46.020Z,6.97
2022-12-11T18:16:27.523Z,7.88
2022-12-11T18:18:54.874Z,6.40
2022-12-11T18:21:31.302Z,6.65
2022-12-11T18:24:00.122Z,7.45
2022-12-11T18:26:28.103Z,6.95
2022-12-11T18:28:55.536Z,6.75
2022-12-11T18:31:23.128Z,6.65
2022-12-11T18:33:51.297Z,7.07
2022-12-11T18:36:19.809Z,7.35
2022-12-11T18:38:48.070Z,7.70
2022-12-11T18:41:17.311Z,6.88
2022-12-11T18:43:44.867Z,6.88
2022-12-11T18:46:14.910Z,6.65
2022-12-11T18:48:43.471Z,8.27
2022-12-11T18:51:14.402Z,11.95
2022-12-11T18:53:41.536Z,12.15
2022-12-11T18:56:11.453Z,8.80
2022-12-11T18:58:39.263Z,6.32
2022-12-11T19:01:24.870Z,5.07
2022-12-11T19:03:58.811Z,5.97
2022-12-11T19:06:33.238Z,6.07
2022-12-11T19:09:00.380Z,5.22
2022-12-11T19:11:29.476Z,7.13
2022-12-11T19:13:56.808Z,6.88
2022-12-11T19:16:27.496Z,6.90
2022-12-11T19:18:54.657Z,7.20
2022-12-11T19:21:21.700Z,6.85
2022-12-11T19:23:49.813Z,6.47
2022-12-11T19:26:19.082Z,7.85
2022-12-11T19:28:47.765Z,8.45
2022-12-11T19:31:21.176Z,10.40
2022-12-11T19:33:48.522Z,8.02
2022-12-11T19:36:18.356Z,7.95
2022-12-11T19:38:46.678Z,6.55
2022-12-11T19:41:19.403Z,6.28
2022-12-11T19:43:46.846Z,7.55
2022-12-11T19:46:15.089Z,7.18
2022-12-11T19:48:42.765Z,7.20
2022-12-11T19:51:15.870Z,6.85
2022-12-11T19:53:44.776Z,6.20
2022-12-11T19:56:12.690Z,6.35
2022-12-11T19:58:41.615Z,7.55
2022-12-11T20:01:09.936Z,7.63
2022-12-11T20:03:37.998Z,7.18
2022-12-11T20:08:49.713Z,7.80
2022-12-11T20:11:19.150Z,7.97
2022-12-11T20:13:49.756Z,8.30
2022-12-11T20:16:20.016Z,8.40
2022-12-11T20:18:56.103Z,8.65
2022-12-11T20:21:23.984Z,8.55
2022-12-11T20:23:51.371Z,8.00
2022-12-11T20:26:23.917Z,7.80
2022-12-11T20:28:52.256Z,8.02
2022-12-11T20:31:23.006Z,7.30
2022-12-11T20:33:51.346Z,9.20
2022-12-11T20:36:20.886Z,8.38
2022-12-11T20:38:48.514Z,8.50
2022-12-11T20:41:18.966Z,8.60
2022-12-11T20:43:49.435Z,9.93
2022-12-11T20:46:17.346Z,9.10
2022-12-11T20:48:45.575Z,8.88
2022-12-11T20:51:19.615Z,8.30
2022-12-11T20:53:56.566Z,9.23
2022-12-11T20:56:25.151Z,9.85
2022-12-11T20:58:52.225Z,11.60
2022-12-11T21:01:22.761Z,11.70
2022-12-11T21:03:50.633Z,13.98
2022-12-11T21:06:23.216Z,14.52
2022-12-11T21:08:50.300Z,9.35
2022-12-11T21:11:20.660Z,7.80
2022-12-11T21:13:50.630Z,8.80
2022-12-11T21:16:19.066Z,9.45
2022-12-11T21:18:46.771Z,8.27
2022-12-11T21:21:13.835Z,11.32
2022-12-11T21:23:41.486Z,9.38
2022-12-11T21:26:08.753Z,9.73
2022-12-11T21:28:49.284Z,8.70
2022-12-11T21:31:22.300Z,8.05
2022-12-11T21:33:52.729Z,10.77
2022-12-11T21:36:20.417Z,9.70
2022-12-11T21:38:48.503Z,13.02
2022-12-11T21:41:23.213Z,12.05
2022-12-11T21:44:56.655Z,11.63
2022-12-11T21:46:40.191Z,16.40
2022-12-11T21:49:08.515Z,11.90
2022-12-11T21:51:42.550Z,12.27
2022-12-11T21:54:15.686Z,12.52
2022-12-11T21:56:43.389Z,12.93
2022-12-11T21:59:10.481Z,13.68
2022-12-11T22:01:42.353Z,11.48
2022-12-11T22:04:10.834Z,11.70
2022-12-11T22:06:38.026Z,12.90
2022-12-11T22:09:06.022Z,12.43
2022-12-11T22:11:34.284Z,9.15
2022-12-11T22:14:03.421Z,8.00
2022-12-11T22:16:30.705Z,8.10
2022-12-11T22:18:57.628Z,8.50
2022-12-11T22:21:24.611Z,8.85
2022-12-11T22:23:51.838Z,7.65
2022-12-11T22:26:21.732Z,8.50
2022-12-11T22:28:49.096Z,8.93
2022-12-11T22:31:19.880Z,10.32
2022-12-11T22:33:47.727Z,10.30
2022-12-11T22:36:15.494Z,12.50
2022-12-11T22:38:42.417Z,13.30
2022-12-11T22:41:23.480Z,14.23
2022-12-11T22:43:51.123Z,12.45
2022-12-11T22:46:21.857Z,11.40
2022-12-11T22:48:49.752Z,12.50
2022-12-11T22:51:17.024Z,12.25
2022-12-11T22:53:44.258Z,12.95
2022-12-11T22:56:12.830Z,12.80
2022-12-11T22:58:40.693Z,13.05
2022-12-11T23:01:13.792Z,12.90
2022-12-11T23:03:41.217Z,13.15
2022-12-11T23:06:11.249Z,13.77
2022-12-11T23:08:40.017Z,14.18
2022-12-11T23:11:15.601Z,15.40
2022-12-11T23:13:42.986Z,17.67
2022-12-11T23:16:10.670Z,17.20
2022-12-11T23:18:38.195Z,15.13
2022-12-11T23:21:07.059Z,17.25
2022-12-11T23:23:33.976Z,16.25
2022-12-11T23:26:00.921Z,14.93
2022-12-11T23:28:27.950Z,15.68
2022-12-11T23:30:55.181Z,17.15
2022-12-11T23:33:22.705Z,15.73
2022-12-11T23:35:49.620Z,17.75
2022-12-11T23:38:17.750Z,17.20
2022-12-11T23:40:44.931Z,14.25
2022-12-11T23:43:12.162Z,18.33
2022-12-11T23:45:38.946Z,14.32
2022-12-11T23:48:05.807Z,13.57
2022-12-11T23:50:33.078Z,13.70
2022-12-11T23:53:00.435Z,12.65
2022-12-11T23:55:27.822Z,12.32
2022-12-11T23:57:54.999Z,13.18
